createdAt,value
2022-08-17T00:00:42.900Z,15.79
2022-08-17T00:03:06.025Z,15.75
2022-08-17T00:05:58.543Z,15.84
2022-08-17T00:08:38.697Z,15.88
2022-08-17T00:11:09.004Z,16.00
2022-08-17T00:13:45.187Z,15.95
2022-08-17T00:16:22.589Z,15.85
2022-08-17T00:19:13.554Z,15.74
2022-08-17T00:22:30.963Z,15.81
2022-08-17T00:24:33.958Z,15.83
2022-08-17T00:27:00.750Z,15.74
2022-08-17T00:29:27.558Z,15.57
2022-08-17T00:31:54.349Z,15.66
2022-08-17T00:34:21.133Z,15.72
2022-08-17T00:36:48.065Z,15.66
2022-08-17T00:39:14.928Z,15.62
2022-08-17T00:41:42.503Z,15.68
2022-08-17T00:44:09.840Z,15.64
2022-08-17T00:46:41.127Z,15.64
2022-08-17T00:49:10.743Z,15.55
2022-08-17T00:52:01.050Z,15.56
2022-08-17T00:54:41.680Z,15.59
2022-08-17T00:57:25.335Z,15.54
2022-08-17T01:00:05.298Z,15.43
2022-08-17T01:02:42.022Z,15.44
2022-08-17T01:05:19.053Z,15.52
2022-08-17T01:07:48.494Z,15.52
2022-08-17T01:10:59.503Z,15.41
2022-08-17T01:13:07.533Z,15.40
2022-08-17T01:15:41.650Z,15.47
2022-08-17T01:18:14.577Z,15.48
2022-08-17T01:20:51.731Z,15.56
2022-08-17T01:23:21.813Z,15.45
2022-08-17T01:25:55.826Z,15.37
2022-08-17T01:28:53.400Z,15.25
2022-08-17T01:31:11.667Z,15.27
2022-08-17T01:33:38.783Z,15.24
2022-08-17T01:36:07.324Z,15.13
2022-08-17T01:38:37.024Z,15.22
2022-08-17T01:41:10.709Z,15.31
2022-08-17T01:43:48.091Z,15.34
2022-08-17T01:46:27.708Z,15.34
2022-08-17T01:48:57.671Z,15.24
2022-08-17T01:51:33.208Z,15.28
2022-08-17T01:54:09.277Z,15.25
2022-08-17T01:56:41.208Z,15.22
2022-08-17T01:59:08.033Z,15.19
2022-08-17T02:01:36.013Z,15.29
2022-08-17T02:04:04.261Z,15.30
2022-08-17T02:06:52.675Z,15.23
2022-08-17T02:09:25.584Z,15.04
2022-08-17T02:11:56.761Z,15.11
2022-08-17T02:14:25.351Z,15.11
2022-08-17T02:16:53.182Z,15.17
2022-08-17T02:19:21.966Z,15.10
2022-08-17T02:21:51.618Z,15.14
2022-08-17T02:25:00.454Z,15.09
2022-08-17T02:27:16.726Z,15.14
2022-08-17T02:29:43.563Z,15.07
2022-08-17T02:32:28.227Z,14.94
2022-08-17T02:34:57.242Z,14.87
2022-08-17T02:37:25.656Z,14.96
2022-08-17T02:39:52.847Z,15.02
2022-08-17T02:42:27.909Z,14.94
2022-08-17T02:44:54.989Z,14.90
2022-08-17T02:47:21.804Z,14.96
2022-08-17T02:49:55.843Z,15.07
2022-08-17T02:52:43.079Z,15.13
2022-08-17T02:55:29.395Z,15.17
2022-08-17T02:57:57.069Z,15.15
2022-08-17T03:00:34.121Z,15.13
2022-08-17T03:03:04.614Z,15.17
2022-08-17T03:05:36.184Z,15.16
2022-08-17T03:08:04.586Z,15.18
2022-08-17T03:10:31.539Z,15.22
2022-08-17T03:12:59.608Z,15.33
2022-08-17T03:15:31.578Z,15.35
2022-08-17T03:17:59.798Z,15.38
2022-08-17T03:20:29.474Z,15.44
2022-08-17T03:23:01.882Z,15.48
2022-08-17T03:25:36.158Z,15.42
2022-08-17T03:28:05.470Z,15.40
2022-08-17T03:30:33.224Z,15.38
2022-08-17T03:33:04.032Z,15.51
2022-08-17T03:35:34.298Z,15.48
2022-08-17T03:38:01.905Z,15.43
2022-08-17T03:40:55.841Z,15.42
2022-08-17T03:43:18.497Z,15.54
2022-08-17T03:46:03.856Z,15.50
2022-08-17T03:48:51.404Z,15.37
2022-08-17T03:51:42.336Z,15.30
2022-08-17T03:54:29.484Z,15.35
2022-08-17T03:57:09.830Z,15.37
2022-08-17T03:59:37.582Z,15.37
2022-08-17T04:02:11.254Z,15.43
2022-08-17T04:04:39.330Z,15.47
2022-08-17T04:07:07.582Z,15.44
2022-08-17T04:09:34.902Z,15.36
2022-08-17T04:12:04.596Z,15.21
2022-08-17T04:14:52.659Z,15.27
2022-08-17T04:17:29.015Z,15.29
2022-08-17T04:19:56.905Z,15.34
2022-08-17T04:22:30.070Z,15.45
2022-08-17T04:25:20.358Z,15.28
2022-08-17T04:27:48.803Z,15.29
2022-08-17T04:30:16.012Z,15.31
2022-08-17T04:33:04.386Z,15.36
2022-08-17T04:35:41.950Z,15.20
2022-08-17T04:38:18.605Z,15.19
2022-08-17T04:41:04.285Z,15.22
2022-08-17T04:43:34.156Z,15.26
2022-08-17T04:46:08.180Z,15.29
2022-08-17T04:48:42.784Z,15.35
2022-08-17T04:51:17.692Z,15.41
2022-08-17T04:53:54.172Z,15.35
2022-08-17T04:56:22.471Z,15.32
2022-08-17T04:58:53.097Z,15.43
2022-08-17T05:01:23.664Z,15.43
2022-08-17T05:03:53.961Z,15.45
2022-08-17T05:06:21.318Z,15.45
2022-08-17T05:08:48.266Z,15.37
2022-08-17T05:11:15.268Z,15.40
2022-08-17T05:13:42.311Z,15.43
2022-08-17T05:16:09.287Z,15.45
2022-08-17T05:18:37.367Z,15.48
2022-08-17T05:21:04.838Z,15.56
2022-08-17T05:23:41.808Z,15.57
2022-08-17T05:26:26.416Z,15.81
2022-08-17T05:28:57.117Z,15.91
2022-08-17T05:31:26.936Z,15.95
2022-08-17T05:33:53.878Z,15.98
2022-08-17T05:36:41.831Z,15.94
2022-08-17T05:39:07.564Z,16.03
2022-08-17T05:41:34.409Z,16.12
2022-08-17T05:44:05.389Z,16.06
2022-08-17T05:46:40.208Z,16.29
2022-08-17T05:49:08.589Z,16.36
2022-08-17T05:51:53.410Z,16.53
2022-08-17T05:55:00.841Z,16.55
2022-08-17T05:57:43.534Z,16.63
2022-08-17T06:00:20.363Z,16.69
2022-08-17T06:03:14.306Z,16.82
2022-08-17T06:06:39.994Z,16.95
2022-08-17T06:10:02.446Z,17.02
2022-08-17T06:12:56.889Z,17.27
2022-08-17T06:15:31.411Z,17.36
2022-08-17T06:18:02.553Z,17.50
2022-08-17T06:20:48.939Z,17.64
2022-08-17T06:23:48.365Z,17.83
2022-08-17T06:26:27.617Z,18.07
2022-08-17T06:29:27.145Z,18.30
2022-08-17T06:31:53.935Z,18.41
2022-08-17T06:34:21.834Z,18.58
2022-08-17T06:37:09.376Z,18.67
2022-08-17T06:40:23.517Z,18.84
2022-08-17T06:43:05.188Z,18.97
2022-08-17T06:45:49.393Z,19.01
2022-08-17T06:48:40.947Z,19.24
2022-08-17T06:51:39.638Z,19.41
2022-08-17T06:54:18.809Z,19.55
2022-08-17T06:56:55.208Z,19.73
2022-08-17T06:59:55.258Z,19.91
2022-08-17T07:02:56.298Z,20.20
2022-08-17T07:05:39.189Z,20.38
2022-08-17T07:08:18.649Z,20.57
2022-08-17T07:10:58.282Z,20.67
2022-08-17T07:14:22.513Z,21.08
2022-08-17T07:16:51.734Z,21.38
2022-08-17T07:19:32.350Z,21.55
2022-08-17T07:22:23.942Z,21.70
2022-08-17T07:24:58.466Z,22.20
2022-08-17T07:27:45.847Z,22.56
2022-08-17T07:30:52.584Z,22.83
2022-08-17T07:33:25.829Z,22.94
2022-08-17T07:35:53.704Z,23.04
2022-08-17T07:38:35.749Z,23.28
2022-08-17T07:41:08.952Z,23.21
2022-08-17T07:43:38.173Z,23.37
2022-08-17T07:46:53.207Z,23.44
2022-08-17T07:49:36.454Z,23.50
2022-08-17T07:52:47.401Z,23.54
2022-08-17T07:54:58.509Z,23.60
2022-08-17T07:57:35.734Z,23.71
2022-08-17T08:00:03.039Z,23.65
2022-08-17T08:02:43.237Z,23.58
2022-08-17T08:05:44.292Z,23.69
2022-08-17T08:08:45.067Z,23.81
2022-08-17T08:11:15.775Z,23.87
2022-08-17T08:13:45.869Z,23.83
2022-08-17T08:16:24.478Z,24.02
2022-08-17T08:19:01.050Z,24.19
2022-08-17T08:21:47.295Z,24.33
2022-08-17T08:24:22.598Z,24.27
2022-08-17T08:27:38.993Z,24.25
2022-08-17T08:30:19.350Z,24.34
2022-08-17T08:33:10.661Z,24.41
2022-08-17T08:35:53.610Z,24.57
2022-08-17T08:38:47.497Z,24.70
2022-08-17T08:41:47.212Z,24.78
2022-08-17T08:45:00.282Z,24.79
2022-08-17T08:48:06.793Z,24.73
2022-08-17T08:51:02.450Z,24.60
2022-08-17T08:53:44.930Z,24.57
2022-08-17T08:56:35.412Z,24.58
2022-08-17T08:59:08.149Z,24.49
2022-08-17T09:02:03.601Z,24.85
2022-08-17T09:05:13.033Z,24.90
2022-08-17T09:07:43.921Z,25.13
2022-08-17T09:10:35.283Z,25.15
2022-08-17T09:13:22.906Z,25.11
2022-08-17T09:15:59.283Z,24.96
2022-08-17T09:19:02.817Z,25.01
2022-08-17T09:21:38.353Z,25.22
2022-08-17T09:24:40.129Z,24.98
2022-08-17T09:27:13.940Z,25.27
2022-08-17T09:29:49.681Z,25.29
2022-08-17T09:32:38.210Z,25.37
2022-08-17T09:35:20.982Z,25.54
2022-08-17T09:37:53.613Z,25.51
2022-08-17T09:40:29.626Z,25.56
2022-08-17T09:43:16.710Z,25.66
2022-08-17T09:46:04.660Z,25.58
2022-08-17T09:48:42.160Z,25.62
2022-08-17T09:51:25.316Z,25.59
2022-08-17T09:53:52.133Z,25.74
2022-08-17T09:57:29.032Z,25.73
2022-08-17T10:00:12.325Z,25.91
2022-08-17T10:03:21.188Z,25.74
2022-08-17T10:06:21.989Z,25.75
2022-08-17T10:09:10.144Z,25.78
2022-08-17T10:12:03.755Z,25.85
2022-08-17T10:14:43.702Z,25.90
2022-08-17T10:17:32.593Z,25.94
2022-08-17T10:20:22.259Z,25.79
2022-08-17T10:23:18.725Z,25.79
2022-08-17T10:26:11.658Z,25.87
2022-08-17T10:29:06.830Z,25.91
2022-08-17T10:31:56.261Z,25.96
2022-08-17T10:34:41.131Z,26.19
2022-08-17T10:37:55.161Z,26.13
2022-08-17T10:40:49.183Z,26.55
2022-08-17T10:43:37.293Z,26.70
2022-08-17T10:46:36.337Z,26.70
2022-08-17T10:49:18.162Z,26.65
2022-08-17T10:51:54.991Z,26.55
2022-08-17T10:54:24.406Z,26.77
2022-08-17T10:56:57.001Z,26.77
2022-08-17T10:59:35.691Z,26.86
2022-08-17T11:04:57.361Z,26.96
2022-08-17T11:07:32.879Z,27.15
2022-08-17T11:10:08.518Z,27.35
2022-08-17T11:12:44.423Z,27.33
2022-08-17T11:16:04.800Z,27.32
2022-08-17T11:19:35.331Z,27.44
2022-08-17T11:22:48.344Z,27.68
2022-08-17T11:25:22.755Z,27.90
2022-08-17T11:28:05.774Z,27.83
2022-08-17T11:30:44.663Z,28.01
2022-08-17T11:33:30.406Z,28.11
2022-08-17T11:36:25.474Z,28.19
2022-08-17T11:39:20.463Z,28.41
2022-08-17T11:42:01.013Z,28.39
2022-08-17T11:44:52.031Z,28.62
2022-08-17T11:51:19.412Z,28.68
2022-08-17T11:53:46.200Z,28.83
2022-08-17T11:56:49.505Z,28.71
2022-08-17T11:59:35.941Z,28.78
2022-08-17T12:02:35.130Z,28.91
2022-08-17T12:05:14.647Z,29.01
2022-08-17T12:08:08.109Z,29.12
2022-08-17T12:11:00.853Z,29.25
2022-08-17T12:13:38.564Z,29.28
2022-08-17T12:16:10.113Z,29.37
2022-08-17T12:18:42.142Z,29.44
2022-08-17T12:21:17.876Z,29.42
2022-08-17T12:24:23.229Z,29.60
2022-08-17T12:26:56.757Z,29.57
2022-08-17T12:29:38.462Z,29.59
2022-08-17T12:32:07.408Z,29.58
2022-08-17T12:34:40.961Z,29.90
2022-08-17T12:37:20.018Z,30.02
2022-08-17T12:40:10.239Z,30.21
2022-08-17T12:42:39.498Z,30.24
2022-08-17T12:45:29.386Z,30.47
2022-08-17T12:48:07.911Z,30.48
2022-08-17T12:50:41.241Z,30.43
2022-08-17T12:53:23.820Z,30.29
2022-08-17T12:55:52.060Z,29.99
2022-08-17T12:58:33.263Z,30.08
2022-08-17T13:01:11.118Z,30.00
2022-08-17T13:03:49.499Z,30.11
2022-08-17T13:06:34.645Z,30.38
2022-08-17T13:09:33.539Z,30.61
2022-08-17T13:12:07.942Z,30.55
2022-08-17T13:14:35.460Z,30.83
2022-08-17T13:17:08.587Z,30.96
2022-08-17T13:19:50.122Z,30.99
2022-08-17T13:22:23.170Z,31.22
2022-08-17T13:25:09.233Z,30.92
2022-08-17T13:27:36.318Z,30.99
2022-08-17T13:30:12.241Z,30.75
2022-08-17T13:32:47.296Z,30.59
2022-08-17T13:35:39.832Z,30.69
2022-08-17T13:38:39.534Z,30.50
2022-08-17T13:41:07.565Z,30.52
2022-08-17T13:43:50.739Z,30.76
2022-08-17T13:46:31.686Z,31.00
2022-08-17T13:49:04.209Z,30.76
2022-08-17T13:51:43.716Z,30.39
2022-08-17T13:54:36.121Z,30.61
2022-08-17T13:57:07.990Z,30.68
2022-08-17T13:59:54.527Z,30.80
2022-08-17T14:02:28.378Z,31.03
2022-08-17T14:04:56.349Z,31.07
2022-08-17T14:07:36.301Z,31.27
2022-08-17T14:10:23.993Z,31.02
2022-08-17T14:12:51.033Z,30.75
2022-08-17T14:15:22.012Z,30.37
2022-08-17T14:17:49.411Z,30.31
2022-08-17T14:20:20.068Z,30.75
2022-08-17T14:22:53.106Z,30.86
2022-08-17T14:25:27.630Z,30.95
2022-08-17T14:27:55.635Z,30.94
2022-08-17T14:30:26.949Z,31.16
2022-08-17T14:32:58.193Z,30.96
2022-08-17T14:35:28.009Z,31.26
2022-08-17T14:37:55.986Z,30.83
2022-08-17T14:40:25.077Z,30.88
2022-08-17T14:42:53.753Z,30.85
2022-08-17T14:45:30.023Z,30.84
2022-08-17T14:47:59.336Z,30.99
2022-08-17T14:50:27.305Z,31.11
2022-08-17T14:52:56.233Z,31.32
2022-08-17T14:55:25.517Z,31.40
2022-08-17T14:57:52.591Z,31.55
2022-08-17T15:00:19.744Z,31.77
2022-08-17T15:02:50.973Z,31.67
2022-08-17T15:05:17.975Z,31.84
2022-08-17T15:07:44.809Z,31.51
2022-08-17T15:10:14.146Z,31.64
2022-08-17T15:12:42.249Z,31.52
2022-08-17T15:15:12.681Z,31.49
2022-08-17T15:17:44.837Z,31.40
2022-08-17T15:20:19.671Z,31.05
2022-08-17T15:22:55.414Z,31.17
2022-08-17T15:25:25.400Z,31.07
2022-08-17T15:27:52.784Z,30.84
2022-08-17T15:30:20.850Z,30.58
2022-08-17T15:32:54.484Z,30.64
2022-08-17T15:35:27.442Z,30.70
2022-08-17T15:38:06.249Z,30.62
2022-08-17T15:40:41.748Z,30.57
2022-08-17T15:43:23.284Z,30.48
2022-08-17T15:46:02.826Z,30.30
2022-08-17T15:48:43.880Z,30.39
2022-08-17T15:51:24.202Z,30.33
2022-08-17T15:53:58.503Z,30.17
2022-08-17T15:56:27.177Z,29.88
2022-08-17T15:58:57.535Z,29.73
2022-08-17T16:03:13.014Z,29.71
2022-08-17T16:04:30.168Z,29.69
2022-08-17T16:06:58.881Z,29.83
2022-08-17T16:09:25.729Z,29.60
2022-08-17T16:11:53.860Z,29.32
2022-08-17T16:14:23.178Z,29.45
2022-08-17T16:16:51.809Z,29.37
2022-08-17T16:19:18.741Z,29.24
2022-08-17T16:21:45.606Z,29.34
2022-08-17T16:24:13.659Z,29.20
2022-08-17T16:26:42.549Z,29.36
2022-08-17T16:29:09.696Z,29.17
2022-08-17T16:31:37.896Z,29.18
2022-08-17T16:34:17.875Z,29.18
2022-08-17T16:36:55.066Z,29.07
2022-08-17T16:39:26.525Z,29.20
2022-08-17T16:41:53.753Z,29.10
2022-08-17T16:44:22.319Z,29.10
2022-08-17T16:46:50.447Z,29.02
2022-08-17T16:49:36.237Z,29.08
2022-08-17T16:52:10.602Z,28.94
2022-08-17T16:54:43.980Z,28.92
2022-08-17T16:57:17.560Z,28.86
2022-08-17T16:59:48.168Z,28.80
2022-08-17T17:02:29.778Z,28.56
2022-08-17T17:05:07.622Z,28.50
2022-08-17T17:07:49.807Z,28.50
2022-08-17T17:10:23.812Z,28.38
2022-08-17T17:13:02.714Z,28.22
2022-08-17T17:15:57.517Z,28.15
2022-08-17T17:18:43.823Z,28.11
2022-08-17T17:21:20.286Z,27.94
2022-08-17T17:23:59.944Z,27.84
2022-08-17T17:26:58.199Z,27.88
2022-08-17T17:29:47.715Z,27.86
2022-08-17T17:32:24.959Z,27.67
2022-08-17T17:35:01.931Z,27.65
2022-08-17T17:37:34.799Z,27.69
2022-08-17T17:40:07.024Z,27.66
2022-08-17T17:42:35.814Z,27.56
2022-08-17T17:45:07.290Z,27.55
2022-08-17T17:47:35.625Z,27.46
2022-08-17T17:50:05.770Z,27.39
2022-08-17T17:52:57.284Z,27.31
2022-08-17T17:55:54.531Z,27.23
2022-08-17T17:58:49.122Z,27.12
2022-08-17T18:01:44.490Z,27.01
2022-08-17T18:04:31.568Z,26.92
2022-08-17T18:07:23.036Z,26.81
2022-08-17T18:10:29.457Z,26.67
2022-08-17T18:13:08.265Z,26.57
2022-08-17T18:15:51.410Z,26.45
2022-08-17T18:18:18.280Z,26.40
2022-08-17T18:20:54.129Z,26.31
2022-08-17T18:23:27.941Z,26.13
2022-08-17T18:25:58.692Z,26.05
2022-08-17T18:28:38.122Z,25.90
2022-08-17T18:31:18.542Z,25.81
2022-08-17T18:33:52.708Z,25.55
2022-08-17T18:36:36.515Z,25.35
2022-08-17T18:39:16.986Z,25.14
2022-08-17T18:41:48.867Z,24.92
2022-08-17T18:44:42.797Z,24.84
2022-08-17T18:47:26.077Z,24.85
2022-08-17T18:50:25.701Z,24.65
2022-08-17T18:52:55.306Z,24.53
2022-08-17T18:55:28.503Z,24.41
2022-08-17T18:57:57.506Z,24.51
2022-08-17T19:00:30.143Z,24.45
2022-08-17T19:03:07.491Z,24.28
2022-08-17T19:05:46.703Z,24.41
2022-08-17T19:08:30.973Z,24.32
2022-08-17T19:11:28.826Z,24.46
2022-08-17T19:14:06.002Z,24.38
2022-08-17T19:16:46.313Z,24.42
2022-08-17T19:19:53.070Z,24.39
2022-08-17T19:22:30.929Z,24.32
2022-08-17T19:25:12.692Z,24.26
2022-08-17T19:27:57.863Z,24.24
2022-08-17T19:30:25.474Z,24.20
2022-08-17T19:32:53.265Z,24.21
2022-08-17T19:35:22.339Z,24.15
2022-08-17T19:38:12.857Z,24.10
2022-08-17T19:41:46.564Z,24.12
2022-08-17T19:44:29.683Z,24.03
2022-08-17T19:47:30.534Z,24.01
2022-08-17T19:50:14.305Z,23.92
2022-08-17T19:53:08.499Z,23.92
2022-08-17T19:56:21.705Z,23.81
2022-08-17T19:59:01.397Z,23.85
2022-08-17T20:02:21.923Z,23.78
2022-08-17T20:04:51.223Z,23.75
2022-08-17T20:07:28.433Z,23.68
2022-08-17T20:10:05.352Z,23.66
2022-08-17T20:12:39.596Z,23.63
2022-08-17T20:15:24.508Z,23.53
2022-08-17T20:17:52.174Z,23.61
2022-08-17T20:20:24.057Z,23.61
2022-08-17T20:23:18.006Z,23.60
2022-08-17T20:25:58.293Z,23.57
2022-08-17T20:28:30.671Z,23.66
2022-08-17T20:30:58.843Z,23.67
2022-08-17T20:33:36.945Z,23.62
2022-08-17T20:36:24.883Z,23.49
2022-08-17T20:38:57.873Z,23.41
2022-08-17T20:41:27.073Z,23.48
2022-08-17T20:44:06.002Z,23.19
2022-08-17T20:46:38.683Z,22.90
2022-08-17T20:49:11.204Z,22.82
2022-08-17T20:52:01.948Z,22.60
2022-08-17T20:54:41.306Z,22.16
2022-08-17T20:57:14.353Z,21.93
2022-08-17T20:59:45.160Z,21.74
2022-08-17T21:02:21.053Z,21.78
2022-08-17T21:04:50.763Z,21.48
2022-08-17T21:07:43.411Z,21.36
2022-08-17T21:10:21.947Z,21.39
2022-08-17T21:13:08.593Z,21.41
2022-08-17T21:16:28.440Z,21.14
2022-08-17T21:19:19.428Z,20.89
2022-08-17T21:22:08.653Z,20.85
2022-08-17T21:24:55.808Z,20.83
2022-08-17T21:27:38.648Z,20.74
2022-08-17T21:30:06.650Z,20.78
2022-08-17T21:32:40.504Z,20.76
2022-08-17T21:35:11.541Z,20.69
2022-08-17T21:37:44.624Z,20.56
2022-08-17T21:40:11.440Z,20.51
2022-08-17T21:42:52.888Z,20.37
2022-08-17T21:45:40.192Z,20.20
2022-08-17T21:48:24.680Z,20.00
2022-08-17T21:51:02.222Z,20.02
2022-08-17T21:53:38.971Z,20.04
2022-08-17T21:56:08.574Z,20.06
2022-08-17T21:58:41.818Z,20.04
2022-08-17T22:01:31.387Z,20.00
2022-08-17T22:04:15.530Z,20.18
2022-08-17T22:06:54.203Z,20.24
2022-08-17T22:09:35.989Z,20.28
2022-08-17T22:12:24.332Z,20.25
2022-08-17T22:15:01.432Z,20.18
2022-08-17T22:17:46.433Z,20.30
2022-08-17T22:20:20.889Z,20.14
2022-08-17T22:23:09.260Z,20.15
2022-08-17T22:25:56.070Z,20.16
2022-08-17T22:28:53.062Z,20.05
2022-08-17T22:31:29.692Z,20.06
2022-08-17T22:34:01.983Z,20.10
2022-08-17T22:36:37.333Z,20.17
2022-08-17T22:39:10.021Z,20.21
2022-08-17T22:42:00.402Z,20.10
2022-08-17T22:44:37.942Z,19.99
2022-08-17T22:47:31.833Z,19.78
2022-08-17T22:50:06.167Z,19.71
2022-08-17T22:53:02.495Z,19.71
2022-08-17T22:55:52.243Z,19.60
2022-08-17T22:58:42.813Z,19.66
2022-08-17T23:01:33.429Z,19.74
2022-08-17T23:04:06.777Z,19.74
2022-08-17T23:06:37.221Z,19.83
2022-08-17T23:09:07.532Z,19.78
2022-08-17T23:11:49.231Z,19.79
2022-08-17T23:14:20.111Z,19.72
2022-08-17T23:16:53.055Z,19.73
2022-08-17T23:19:21.791Z,19.60
2022-08-17T23:21:50.559Z,19.62
2022-08-17T23:24:25.634Z,19.62
2022-08-17T23:26:53.665Z,19.56
2022-08-17T23:29:21.611Z,19.66
2022-08-17T23:31:50.612Z,19.57
2022-08-17T23:34:18.595Z,19.63
2022-08-17T23:36:53.232Z,19.63
2022-08-17T23:39:24.495Z,19.71
2022-08-17T23:41:59.395Z,19.65
2022-08-17T23:44:28.876Z,19.60
2022-08-17T23:46:56.144Z,19.56
2022-08-17T23:49:25.166Z,19.58
2022-08-17T23:51:54.798Z,19.44
2022-08-17T23:54:35.441Z,19.32
2022-08-17T23:57:04.898Z,19.21
2022-08-17T23:59:33.989Z,19.16
